Hilton Head Island, SC (29928)

2:05 PM EST on January 26, 2015 (GMT -0500)
ZipLine Hilton Head | Change Station
CLOSE
Current Station
Personal Weather Station
Location: Hilton Head Island, SC
Elevation: 46 ft
Nearby Weather Stations
Active Advisory: Special Statement

Elev 46 ft 32.19 °N, 80.76 °W | Updated 3 seconds ago

Mostly Cloudy
Mostly Cloudy
55.8 °F
Feels Like 55.8 °F
N
9.2
Wind Variable Wind from SSW
Gusts 12.3 mph

Today
High -- | Low -- °F
--% Chance of Precip.
Yesterday
High -- | Low -- °F
Precip. -- in
7:20 AM 5:50 PM
Waxing Crescent, 45% visible
Pressure 29.70 in
Visibility 10.0 miles
Clouds Mostly Cloudy 3900 ft
Dew Point 22 °F
Humidity 27%
Rainfall 0.00 in
Snow Depth Not available.
UV 3 out of 12
Pollen 4.50 out of 12
Air Quality Not available.
Flu Activity Not available.
METAR KHXD 261850Z 26011G22KT 200V320 10SM BKN039 13/05 A2970

More Conditions Fewer Conditions

Pressure 29.70 in
Visibility 10.0 miles
Clouds Mostly Cloudy 3900 ft
Dew Point 22 °F
Humidity 27%
Rainfall 0.00 in
Snow Depth Not available.
UV 3 out of 12
Pollen 4.50 out of 12
Air Quality Not available.
Flu Activity Not available.
METAR KHXD 261850Z 26011G22KT 200V320 10SM BKN039 13/05 A2970

More Conditions Fewer Conditions

10-Day Weather Forecast

Almanac

Astronomy

Jan. 26, 2015 Rise Set
Actual Time
Civil Twilight
Nautical Twilight
Astronomical Twilight
Moon
Length of Visible Light
Length of Day
Tomorrow will be .
, % of the Moon is Illuminated

Today's Extremes

State Highs State Lows

Community

WunderPhotos

Upload Photos

1,790,329 photos uploaded!

WunderBlogs® & News

Nearby

Air Quality

  Air Quality AQ Index Pollutant
Not available.

Snow Depth

Station Depth Elevation

Earthquake Activity

City Distance Mag. Time & Date
Minimum magnitude displayed is 2.5.

Coastal Water Temperatures

Place Temperature

Nearby Weather Stations